sensor_id;sensor_type;location;lat;lon;timestamp;P1;durP1;ratioP1;P2;durP2;ratioP2
51194;SDS011;37259;49.972;19.850;2022-12-07T00:00:40;10.2;;;5.9;;
51194;SDS011;37259;49.972;19.850;2022-12-07T00:01:41;10.2;;;5.9;;
51194;SDS011;37259;49.972;19.850;2022-12-07T00:02:40;10.2;;;5.9;;
51194;SDS011;37259;49.972;19.850;2022-12-07T00:03:40;10.2;;;5.9;;
51194;SDS011;37259;49.972;19.850;2022-12-07T00:04:40;10.2;;;5.9;;
51194;SDS011;37259;49.972;19.850;2022-12-07T00:05:40;10.2;;;5.9;;
51194;SDS011;37259;49.972;19.850;2022-12-07T00:06:40;10.2;;;5.9;;
51194;SDS011;37259;49.972;19.850;2022-12-07T00:07:40;10.2;;;5.9;;
51194;SDS011;37259;49.972;19.850;2022-12-07T00:08:40;10.2;;;5.9;;
51194;SDS011;37259;49.972;19.850;2022-12-07T00:09:40;10.2;;;5.9;;
51194;SDS011;37259;49.972;19.850;2022-12-07T00:10:40;10.2;;;5.9;;
51194;SDS011;37259;49.972;19.850;2022-12-07T00:11:40;10.2;;;5.9;;
51194;SDS011;37259;49.972;19.850;2022-12-07T00:12:40;10.2;;;5.9;;
51194;SDS011;37259;49.972;19.850;2022-12-07T00:13:40;10.2;;;5.9;;
51194;SDS011;37259;49.972;19.850;2022-12-07T00:14:40;10.2;;;5.9;;
51194;SDS011;37259;49.972;19.850;2022-12-07T00:15:40;10.2;;;5.9;;
51194;SDS011;37259;49.972;19.850;2022-12-07T00:16:40;10.2;;;5.9;;
51194;SDS011;37259;49.972;19.850;2022-12-07T00:17:40;10.2;;;5.9;;
51194;SDS011;37259;49.972;19.850;2022-12-07T00:18:40;10.1;;;5.8;;
51194;SDS011;37259;49.972;19.850;2022-12-07T00:19:40;10.1;;;5.8;;
51194;SDS011;37259;49.972;19.850;2022-12-07T00:20:40;10.1;;;5.8;;
51194;SDS011;37259;49.972;19.850;2022-12-07T00:21:40;10.1;;;5.8;;
51194;SDS011;37259;49.972;19.850;2022-12-07T00:22:40;10.1;;;5.8;;
51194;SDS011;37259;49.972;19.850;2022-12-07T00:23:40;10.1;;;5.8;;
51194;SDS011;37259;49.972;19.850;2022-12-07T00:24:40;10.1;;;5.8;;
51194;SDS011;37259;49.972;19.850;2022-12-07T00:25:40;10.1;;;5.8;;
51194;SDS011;37259;49.972;19.850;2022-12-07T00:26:40;10.1;;;5.8;;
51194;SDS011;37259;49.972;19.850;2022-12-07T00:27:40;10.1;;;5.8;;
51194;SDS011;37259;49.972;19.850;2022-12-07T00:28:40;10.1;;;5.8;;
51194;SDS011;37259;49.972;19.850;2022-12-07T00:29:40;10.1;;;5.8;;
51194;SDS011;37259;49.972;19.850;2022-12-07T00:30:40;10.1;;;5.8;;
51194;SDS011;37259;49.972;19.850;2022-12-07T00:31:40;10.1;;;5.8;;
51194;SDS011;37259;49.972;19.850;2022-12-07T00:32:40;10.1;;;5.8;;
51194;SDS011;37259;49.972;19.850;2022-12-07T00:33:40;10.1;;;5.8;;
51194;SDS011;37259;49.972;19.850;2022-12-07T00:34:40;10.1;;;5.8;;
51194;SDS011;37259;49.972;19.850;2022-12-07T00:35:40;10.1;;;5.8;;
51194;SDS011;37259;49.972;19.850;2022-12-07T00:36:40;10.1;;;5.8;;
51194;SDS011;37259;49.972;19.850;2022-12-07T00:37:40;10.1;;;5.8;;
51194;SDS011;37259;49.972;19.850;2022-12-07T00:38:40;10.1;;;5.8;;
51194;SDS011;37259;49.972;19.850;2022-12-07T00:39:40;10.1;;;5.8;;
51194;SDS011;37259;49.972;19.850;2022-12-07T00:40:40;10.1;;;5.8;;
51194;SDS011;37259;49.972;19.850;2022-12-07T00:41:40;10.1;;;5.8;;
51194;SDS011;37259;49.972;19.850;2022-12-07T00:42:40;10.1;;;5.8;;
51194;SDS011;37259;49.972;19.850;2022-12-07T00:43:41;10.1;;;5.8;;
51194;SDS011;37259;49.972;19.850;2022-12-07T00:44:40;10.1;;;5.8;;
51194;SDS011;37259;49.972;19.850;2022-12-07T00:45:40;10.1;;;5.8;;
51194;SDS011;37259;49.972;19.850;2022-12-07T00:46:40;10.1;;;5.8;;
51194;SDS011;37259;49.972;19.850;2022-12-07T00:47:41;10.1;;;5.8;;
51194;SDS011;37259;49.972;19.850;2022-12-07T00:48:40;9.2;;;5.7;;
51194;SDS011;37259;49.972;19.850;2022-12-07T00:49:40;9.2;;;5.7;;
51194;SDS011;37259;49.972;19.850;2022-12-07T00:50:40;9.2;;;5.7;;
51194;SDS011;37259;49.972;19.850;2022-12-07T00:51:40;9.2;;;5.7;;
51194;SDS011;37259;49.972;19.850;2022-12-07T00:52:40;9.2;;;5.7;;
51194;SDS011;37259;49.972;19.850;2022-12-07T00:53:40;9.2;;;5.7;;
51194;SDS011;37259;49.972;19.850;2022-12-07T00:54:40;9.2;;;5.7;;
51194;SDS011;37259;49.972;19.850;2022-12-07T00:55:40;9.2;;;5.7;;
51194;SDS011;37259;49.972;19.850;2022-12-07T00:56:40;9.2;;;5.7;;
51194;SDS011;37259;49.972;19.850;2022-12-07T00:57:40;9.2;;;5.7;;
51194;SDS011;37259;49.972;19.850;2022-12-07T00:58:40;9.2;;;5.7;;
51194;SDS011;37259;49.972;19.850;2022-12-07T00:59:40;9.2;;;5.7;;
51194;SDS011;37259;49.972;19.850;2022-12-07T01:00:40;9.2;;;5.7;;
51194;SDS011;37259;49.972;19.850;2022-12-07T01:01:40;9.2;;;5.7;;
51194;SDS011;37259;49.972;19.850;2022-12-07T01:02:40;9.2;;;5.7;;
51194;SDS011;37259;49.972;19.850;2022-12-07T01:03:40;9.2;;;5.7;;
51194;SDS011;37259;49.972;19.850;2022-12-07T01:04:40;9.2;;;5.7;;
51194;SDS011;37259;49.972;19.850;2022-12-07T01:05:40;9.2;;;5.7;;
51194;SDS011;37259;49.972;19.850;2022-12-07T01:06:40;9.2;;;5.7;;
51194;SDS011;37259;49.972;19.850;2022-12-07T01:07:40;9.2;;;5.7;;
51194;SDS011;37259;49.972;19.850;2022-12-07T01:08:40;9.2;;;5.7;;
51194;SDS011;37259;49.972;19.850;2022-12-07T01:09:40;9.2;;;5.7;;
51194;SDS011;37259;49.972;19.850;2022-12-07T01:10:40;9.2;;;5.7;;
51194;SDS011;37259;49.972;19.850;2022-12-07T01:11:40;9.2;;;5.7;;
51194;SDS011;37259;49.972;19.850;2022-12-07T01:12:40;9.2;;;5.7;;
51194;SDS011;37259;49.972;19.850;2022-12-07T01:13:40;9.2;;;5.7;;
51194;SDS011;37259;49.972;19.850;2022-12-07T01:14:41;9.2;;;5.7;;
51194;SDS011;37259;49.972;19.850;2022-12-07T01:15:40;9.2;;;5.7;;
51194;SDS011;37259;49.972;19.850;2022-12-07T01:16:40;9.2;;;5.7;;
51194;SDS011;37259;49.972;19.850;2022-12-07T01:17:40;9.2;;;5.7;;
51194;SDS011;37259;49.972;19.850;2022-12-07T01:18:41;9.2;;;5.2;;
51194;SDS011;37259;49.972;19.850;2022-12-07T01:19:40;9.2;;;5.2;;
51194;SDS011;37259;49.972;19.850;2022-12-07T01:20:40;9.2;;;5.2;;
51194;SDS011;37259;49.972;19.850;2022-12-07T01:21:40;9.2;;;5.2;;
51194;SDS011;37259;49.972;19.850;2022-12-07T01:22:40;9.2;;;5.2;;
51194;SDS011;37259;49.972;19.850;2022-12-07T01:23:40;9.2;;;5.2;;
51194;SDS011;37259;49.972;19.850;2022-12-07T01:24:40;9.2;;;5.2;;
51194;SDS011;37259;49.972;19.850;2022-12-07T01:25:40;9.2;;;5.2;;
51194;SDS011;37259;49.972;19.850;2022-12-07T01:26:40;9.2;;;5.2;;
51194;SDS011;37259;49.972;19.850;2022-12-07T01:27:40;9.2;;;5.2;;
51194;SDS011;37259;49.972;19.850;2022-12-07T01:28:40;9.2;;;5.2;;
51194;SDS011;37259;49.972;19.850;2022-12-07T01:29:40;9.2;;;5.2;;
51194;SDS011;37259;49.972;19.850;2022-12-07T01:30:40;9.2;;;5.2;;
51194;SDS011;37259;49.972;19.850;2022-12-07T01:31:40;9.2;;;5.2;;
51194;SDS011;37259;49.972;19.850;2022-12-07T01:32:40;9.2;;;5.2;;
51194;SDS011;37259;49.972;19.850;2022-12-07T01:33:40;9.2;;;5.2;;
51194;SDS011;37259;49.972;19.850;2022-12-07T01:34:40;9.2;;;5.2;;
51194;SDS011;37259;49.972;19.850;2022-12-07T01:35:40;9.2;;;5.2;;
51194;SDS011;37259;49.972;19.850;2022-12-07T01:36:40;9.2;;;5.2;;
51194;SDS011;37259;49.972;19.850;2022-12-07T01:37:40;9.2;;;5.2;;
51194;SDS011;37259;49.972;19.850;2022-12-07T01:38:40;9.2;;;5.2;;
51194;SDS011;37259;49.972;19.850;2022-12-07T01:39:40;9.2;;;5.2;;
51194;SDS011;37259;49.972;19.850;2022-12-07T01:40:40;9.2;;;5.2;;
51194;SDS011;37259;49.972;19.850;2022-12-07T01:41:40;9.2;;;5.2;;
51194;SDS011;37259;49.972;19.850;2022-12-07T01:42:40;9.2;;;5.2;;
51194;SDS011;37259;49.972;19.850;2022-12-07T01:44:06;9.2;;;5.2;;
51194;SDS011;37259;49.972;19.850;2022-12-07T01:45:14;9.2;;;5.2;;
51194;SDS011;37259;49.972;19.850;2022-12-07T01:45:40;9.2;;;5.2;;
51194;SDS011;37259;49.972;19.850;2022-12-07T01:46:40;9.2;;;5.2;;
51194;SDS011;37259;49.972;19.850;2022-12-07T01:47:40;10.9;;;5.2;;
51194;SDS011;37259;49.972;19.850;2022-12-07T01:48:40;10.9;;;5.2;;
51194;SDS011;37259;49.972;19.850;2022-12-07T01:49:40;10.9;;;5.2;;
51194;SDS011;37259;49.972;19.850;2022-12-07T01:50:40;10.9;;;5.2;;
51194;SDS011;37259;49.972;19.850;2022-12-07T01:51:40;10.9;;;5.2;;
51194;SDS011;37259;49.972;19.850;2022-12-07T01:52:40;10.9;;;5.2;;
51194;SDS011;37259;49.972;19.850;2022-12-07T01:53:41;10.9;;;5.2;;
51194;SDS011;37259;49.972;19.850;2022-12-07T01:54:40;10.9;;;5.2;;
51194;SDS011;37259;49.972;19.850;2022-12-07T01:55:41;10.9;;;5.2;;
51194;SDS011;37259;49.972;19.850;2022-12-07T01:56:40;10.9;;;5.2;;
51194;SDS011;37259;49.972;19.850;2022-12-07T01:57:41;10.9;;;5.2;;
51194;SDS011;37259;49.972;19.850;2022-12-07T01:58:40;10.9;;;5.2;;
51194;SDS011;37259;49.972;19.850;2022-12-07T01:59:40;10.9;;;5.2;;
51194;SDS011;37259;49.972;19.850;2022-12-07T02:00:40;10.9;;;5.2;;
51194;SDS011;37259;49.972;19.850;2022-12-07T02:01:40;10.9;;;5.2;;
51194;SDS011;37259;49.972;19.850;2022-12-07T02:02:41;10.9;;;5.2;;
51194;SDS011;37259;49.972;19.850;2022-12-07T02:03:41;10.9;;;5.2;;
51194;SDS011;37259;49.972;19.850;2022-12-07T02:04:40;10.9;;;5.2;;
51194;SDS011;37259;49.972;19.850;2022-12-07T02:05:40;10.9;;;5.2;;
51194;SDS011;37259;49.972;19.850;2022-12-07T02:06:40;10.9;;;5.2;;
51194;SDS011;37259;49.972;19.850;2022-12-07T02:07:40;10.9;;;5.2;;
51194;SDS011;37259;49.972;19.850;2022-12-07T02:08:40;10.9;;;5.2;;
51194;SDS011;37259;49.972;19.850;2022-12-07T02:09:40;10.9;;;5.2;;
51194;SDS011;37259;49.972;19.850;2022-12-07T02:10:40;10.9;;;5.2;;
51194;SDS011;37259;49.972;19.850;2022-12-07T02:11:40;10.9;;;5.2;;
51194;SDS011;37259;49.972;19.850;2022-12-07T02:12:40;10.9;;;5.2;;
51194;SDS011;37259;49.972;19.850;2022-12-07T02:13:40;10.9;;;5.2;;
51194;SDS011;37259;49.972;19.850;2022-12-07T02:14:40;10.9;;;5.2;;
51194;SDS011;37259;49.972;19.850;2022-12-07T02:15:44;10.9;;;5.2;;
51194;SDS011;37259;49.972;19.850;2022-12-07T02:16:43;10.9;;;5.2;;
51194;SDS011;37259;49.972;19.850;2022-12-07T02:17:42;9.3;;;5.4;;
51194;SDS011;37259;49.972;19.850;2022-12-07T02:18:44;9.3;;;5.4;;
51194;SDS011;37259;49.972;19.850;2022-12-07T02:20:17;9.3;;;5.4;;
51194;SDS011;37259;49.972;19.850;2022-12-07T02:20:41;9.3;;;5.4;;
51194;SDS011;37259;49.972;19.850;2022-12-07T02:21:41;9.3;;;5.4;;
51194;SDS011;37259;49.972;19.850;2022-12-07T02:22:47;9.3;;;5.4;;
51194;SDS011;37259;49.972;19.850;2022-12-07T02:23:41;9.3;;;5.4;;
51194;SDS011;37259;49.972;19.850;2022-12-07T02:24:45;9.3;;;5.4;;
51194;SDS011;37259;49.972;19.850;2022-12-07T02:25:45;9.3;;;5.4;;
51194;SDS011;37259;49.972;19.850;2022-12-07T02:26:47;9.3;;;5.4;;
51194;SDS011;37259;49.972;19.850;2022-12-07T02:27:43;9.3;;;5.4;;
51194;SDS011;37259;49.972;19.850;2022-12-07T02:28:47;9.3;;;5.4;;
51194;SDS011;37259;49.972;19.850;2022-12-07T02:29:40;9.3;;;5.4;;
51194;SDS011;37259;49.972;19.850;2022-12-07T02:30:40;9.3;;;5.4;;
51194;SDS011;37259;49.972;19.850;2022-12-07T02:31:42;9.3;;;5.4;;
51194;SDS011;37259;49.972;19.850;2022-12-07T02:32:42;9.3;;;5.4;;
51194;SDS011;37259;49.972;19.850;2022-12-07T02:33:40;9.3;;;5.4;;
51194;SDS011;37259;49.972;19.850;2022-12-07T02:34:42;9.3;;;5.4;;
51194;SDS011;37259;49.972;19.850;2022-12-07T02:35:40;9.3;;;5.4;;
51194;SDS011;37259;49.972;19.850;2022-12-07T02:36:41;9.3;;;5.4;;
51194;SDS011;37259;49.972;19.850;2022-12-07T02:37:41;9.3;;;5.4;;
51194;SDS011;37259;49.972;19.850;2022-12-07T02:38:47;9.3;;;5.4;;
51194;SDS011;37259;49.972;19.850;2022-12-07T02:39:41;9.3;;;5.4;;
51194;SDS011;37259;49.972;19.850;2022-12-07T02:40:41;9.3;;;5.4;;
51194;SDS011;37259;49.972;19.850;2022-12-07T02:41:42;9.3;;;5.4;;
51194;SDS011;37259;49.972;19.850;2022-12-07T02:42:42;9.3;;;5.4;;
51194;SDS011;37259;49.972;19.850;2022-12-07T02:43:41;9.3;;;5.4;;
51194;SDS011;37259;49.972;19.850;2022-12-07T02:44:40;9.3;;;5.4;;
51194;SDS011;37259;49.972;19.850;2022-12-07T02:45:40;9.3;;;5.4;;
51194;SDS011;37259;49.972;19.850;2022-12-07T02:46:40;9.3;;;5.4;;
51194;SDS011;37259;49.972;19.850;2022-12-07T02:47:40;9.4;;;5.8;;
51194;SDS011;37259;49.972;19.850;2022-12-07T02:48:40;9.4;;;5.8;;
51194;SDS011;37259;49.972;19.850;2022-12-07T02:49:40;9.4;;;5.8;;
51194;SDS011;37259;49.972;19.850;2022-12-07T02:50:44;9.4;;;5.8;;
51194;SDS011;37259;49.972;19.850;2022-12-07T02:51:41;9.4;;;5.8;;
51194;SDS011;37259;49.972;19.850;2022-12-07T02:52:40;9.4;;;5.8;;
51194;SDS011;37259;49.972;19.850;2022-12-07T02:53:41;9.4;;;5.8;;
51194;SDS011;37259;49.972;19.850;2022-12-07T02:54:40;9.4;;;5.8;;
51194;SDS011;37259;49.972;19.850;2022-12-07T02:55:40;9.4;;;5.8;;
51194;SDS011;37259;49.972;19.850;2022-12-07T02:56:42;9.4;;;5.8;;
51194;SDS011;37259;49.972;19.850;2022-12-07T02:57:42;9.4;;;5.8;;
51194;SDS011;37259;49.972;19.850;2022-12-07T02:58:43;9.4;;;5.8;;
51194;SDS011;37259;49.972;19.850;2022-12-07T02:59:42;9.4;;;5.8;;
51194;SDS011;37259;49.972;19.850;2022-12-07T03:00:42;9.4;;;5.8;;
51194;SDS011;37259;49.972;19.850;2022-12-07T03:01:41;9.4;;;5.8;;
51194;SDS011;37259;49.972;19.850;2022-12-07T03:02:42;9.4;;;5.8;;
51194;SDS011;37259;49.972;19.850;2022-12-07T03:03:40;9.4;;;5.8;;
51194;SDS011;37259;49.972;19.850;2022-12-07T03:04:42;9.4;;;5.8;;
51194;SDS011;37259;49.972;19.850;2022-12-07T03:05:45;9.4;;;5.8;;
51194;SDS011;37259;49.972;19.850;2022-12-07T03:06:42;9.4;;;5.8;;
51194;SDS011;37259;49.972;19.850;2022-12-07T03:07:43;9.4;;;5.8;;
51194;SDS011;37259;49.972;19.850;2022-12-07T03:08:44;9.4;;;5.8;;
51194;SDS011;37259;49.972;19.850;2022-12-07T03:09:42;9.4;;;5.8;;
51194;SDS011;37259;49.972;19.850;2022-12-07T03:10:42;9.4;;;5.8;;
51194;SDS011;37259;49.972;19.850;2022-12-07T03:11:41;9.4;;;5.8;;
51194;SDS011;37259;49.972;19.850;2022-12-07T03:12:42;9.4;;;5.8;;
51194;SDS011;37259;49.972;19.850;2022-12-07T03:13:41;9.4;;;5.8;;
51194;SDS011;37259;49.972;19.850;2022-12-07T03:14:41;9.4;;;5.8;;
51194;SDS011;37259;49.972;19.850;2022-12-07T03:15:42;9.4;;;5.8;;
51194;SDS011;37259;49.972;19.850;2022-12-07T03:16:41;9.4;;;5.8;;
51194;SDS011;37259;49.972;19.850;2022-12-07T03:17:40;13.8;;;7.1;;
51194;SDS011;37259;49.972;19.850;2022-12-07T03:18:41;13.8;;;7.1;;
51194;SDS011;37259;49.972;19.850;2022-12-07T03:19:40;13.8;;;7.1;;
51194;SDS011;37259;49.972;19.850;2022-12-07T03:20:40;13.8;;;7.1;;
51194;SDS011;37259;49.972;19.850;2022-12-07T03:21:40;13.8;;;7.1;;
51194;SDS011;37259;49.972;19.850;2022-12-07T03:22:40;13.8;;;7.1;;
51194;SDS011;37259;49.972;19.850;2022-12-07T03:23:40;13.8;;;7.1;;
51194;SDS011;37259;49.972;19.850;2022-12-07T03:24:41;13.8;;;7.1;;
51194;SDS011;37259;49.972;19.850;2022-12-07T03:25:40;13.8;;;7.1;;
51194;SDS011;37259;49.972;19.850;2022-12-07T03:26:41;13.8;;;7.1;;
51194;SDS011;37259;49.972;19.850;2022-12-07T03:27:41;13.8;;;7.1;;
51194;SDS011;37259;49.972;19.850;2022-12-07T03:28:41;13.8;;;7.1;;
51194;SDS011;37259;49.972;19.850;2022-12-07T03:29:41;13.8;;;7.1;;
51194;SDS011;37259;49.972;19.850;2022-12-07T03:30:42;13.8;;;7.1;;
51194;SDS011;37259;49.972;19.850;2022-12-07T03:31:41;13.8;;;7.1;;
51194;SDS011;37259;49.972;19.850;2022-12-07T03:32:41;13.8;;;7.1;;
51194;SDS011;37259;49.972;19.850;2022-12-07T03:33:41;13.8;;;7.1;;
51194;SDS011;37259;49.972;19.850;2022-12-07T03:34:41;13.8;;;7.1;;
51194;SDS011;37259;49.972;19.850;2022-12-07T03:35:40;13.8;;;7.1;;
51194;SDS011;37259;49.972;19.850;2022-12-07T03:36:41;13.8;;;7.1;;
51194;SDS011;37259;49.972;19.850;2022-12-07T03:37:40;13.8;;;7.1;;
51194;SDS011;37259;49.972;19.850;2022-12-07T03:38:40;13.8;;;7.1;;
51194;SDS011;37259;49.972;19.850;2022-12-07T03:39:41;13.8;;;7.1;;
51194;SDS011;37259;49.972;19.850;2022-12-07T03:40:40;13.8;;;7.1;;
51194;SDS011;37259;49.972;19.850;2022-12-07T03:41:40;13.8;;;7.1;;
51194;SDS011;37259;49.972;19.850;2022-12-07T03:42:40;13.8;;;7.1;;
51194;SDS011;37259;49.972;19.850;2022-12-07T03:43:40;13.8;;;7.1;;
51194;SDS011;37259;49.972;19.850;2022-12-07T03:44:41;13.8;;;7.1;;
51194;SDS011;37259;49.972;19.850;2022-12-07T03:45:41;13.8;;;7.1;;
51194;SDS011;37259;49.972;19.850;2022-12-07T03:46:42;13.8;;;7.1;;
51194;SDS011;37259;49.972;19.850;2022-12-07T03:47:42;10.3;;;6.3;;
51194;SDS011;37259;49.972;19.850;2022-12-07T03:48:40;10.3;;;6.3;;
51194;SDS011;37259;49.972;19.850;2022-12-07T03:49:41;10.3;;;6.3;;
51194;SDS011;37259;49.972;19.850;2022-12-07T03:50:41;10.3;;;6.3;;
51194;SDS011;37259;49.972;19.850;2022-12-07T03:51:41;10.3;;;6.3;;
51194;SDS011;37259;49.972;19.850;2022-12-07T03:52:40;10.3;;;6.3;;
51194;SDS011;37259;49.972;19.850;2022-12-07T03:53:42;10.3;;;6.3;;
51194;SDS011;37259;49.972;19.850;2022-12-07T03:54:41;10.3;;;6.3;;
51194;SDS011;37259;49.972;19.850;2022-12-07T03:55:41;10.3;;;6.3;;
51194;SDS011;37259;49.972;19.850;2022-12-07T03:56:40;10.3;;;6.3;;
51194;SDS011;37259;49.972;19.850;2022-12-07T03:57:40;10.3;;;6.3;;
51194;SDS011;37259;49.972;19.850;2022-12-07T03:58:40;10.3;;;6.3;;
51194;SDS011;37259;49.972;19.850;2022-12-07T03:59:40;10.3;;;6.3;;
51194;SDS011;37259;49.972;19.850;2022-12-07T04:00:40;10.3;;;6.3;;
51194;SDS011;37259;49.972;19.850;2022-12-07T04:01:41;10.3;;;6.3;;
51194;SDS011;37259;49.972;19.850;2022-12-07T04:02:40;10.3;;;6.3;;
51194;SDS011;37259;49.972;19.850;2022-12-07T04:03:40;10.3;;;6.3;;
51194;SDS011;37259;49.972;19.850;2022-12-07T04:04:40;10.3;;;6.3;;
51194;SDS011;37259;49.972;19.850;2022-12-07T04:05:40;10.3;;;6.3;;
51194;SDS011;37259;49.972;19.850;2022-12-07T04:06:40;10.3;;;6.3;;
51194;SDS011;37259;49.972;19.850;2022-12-07T04:07:40;10.3;;;6.3;;
51194;SDS011;37259;49.972;19.850;2022-12-07T04:08:40;10.3;;;6.3;;
51194;SDS011;37259;49.972;19.850;2022-12-07T04:09:40;10.3;;;6.3;;
51194;SDS011;37259;49.972;19.850;2022-12-07T04:10:40;10.3;;;6.3;;
51194;SDS011;37259;49.972;19.850;2022-12-07T04:11:40;10.3;;;6.3;;
51194;SDS011;37259;49.972;19.850;2022-12-07T04:12:40;10.3;;;6.3;;
51194;SDS011;37259;49.972;19.850;2022-12-07T04:13:40;10.3;;;6.3;;
51194;SDS011;37259;49.972;19.850;2022-12-07T04:14:40;10.3;;;6.3;;
51194;SDS011;37259;49.972;19.850;2022-12-07T04:15:40;10.3;;;6.3;;
51194;SDS011;37259;49.972;19.850;2022-12-07T04:16:40;10.3;;;6.3;;
51194;SDS011;37259;49.972;19.850;2022-12-07T04:17:40;12.3;;;6.4;;
51194;SDS011;37259;49.972;19.850;2022-12-07T04:18:40;12.3;;;6.4;;
51194;SDS011;37259;49.972;19.850;2022-12-07T04:19:40;12.3;;;6.4;;
51194;SDS011;37259;49.972;19.850;2022-12-07T04:20:40;12.3;;;6.4;;
51194;SDS011;37259;49.972;19.850;2022-12-07T04:21:40;12.3;;;6.4;;
51194;SDS011;37259;49.972;19.850;2022-12-07T04:22:40;12.3;;;6.4;;
51194;SDS011;37259;49.972;19.850;2022-12-07T04:23:40;12.3;;;6.4;;
51194;SDS011;37259;49.972;19.850;2022-12-07T04:24:40;12.3;;;6.4;;
51194;SDS011;37259;49.972;19.850;2022-12-07T04:25:40;12.3;;;6.4;;
51194;SDS011;37259;49.972;19.850;2022-12-07T04:26:40;12.3;;;6.4;;
51194;SDS011;37259;49.972;19.850;2022-12-07T04:27:40;12.3;;;6.4;;
51194;SDS011;37259;49.972;19.850;2022-12-07T04:28:40;12.3;;;6.4;;
51194;SDS011;37259;49.972;19.850;2022-12-07T04:29:40;12.3;;;6.4;;
51194;SDS011;37259;49.972;19.850;2022-12-07T04:30:40;12.3;;;6.4;;
51194;SDS011;37259;49.972;19.850;2022-12-07T04:31:40;12.3;;;6.4;;
51194;SDS011;37259;49.972;19.850;2022-12-07T04:32:40;12.3;;;6.4;;
51194;SDS011;37259;49.972;19.850;2022-12-07T04:33:40;12.3;;;6.4;;
51194;SDS011;37259;49.972;19.850;2022-12-07T04:34:40;12.3;;;6.4;;
51194;SDS011;37259;49.972;19.850;2022-12-07T04:35:41;12.3;;;6.4;;
51194;SDS011;37259;49.972;19.850;2022-12-07T04:36:40;12.3;;;6.4;;
51194;SDS011;37259;49.972;19.850;2022-12-07T04:37:40;12.3;;;6.4;;
51194;SDS011;37259;49.972;19.850;2022-12-07T04:38:40;12.3;;;6.4;;
51194;SDS011;37259;49.972;19.850;2022-12-07T04:39:40;12.3;;;6.4;;
51194;SDS011;37259;49.972;19.850;2022-12-07T04:40:40;12.3;;;6.4;;
51194;SDS011;37259;49.972;19.850;2022-12-07T04:41:40;12.3;;;6.4;;
51194;SDS011;37259;49.972;19.850;2022-12-07T04:42:40;12.3;;;6.4;;
51194;SDS011;37259;49.972;19.850;2022-12-07T04:43:40;12.3;;;6.4;;
51194;SDS011;37259;49.972;19.850;2022-12-07T04:44:40;12.3;;;6.4;;
51194;SDS011;37259;49.972;19.850;2022-12-07T04:45:44;12.3;;;6.4;;
51194;SDS011;37259;49.972;19.850;2022-12-07T04:46:40;12.3;;;6.4;;
51194;SDS011;37259;49.972;19.850;2022-12-07T04:47:40;9.6;;;5.4;;
51194;SDS011;37259;49.972;19.850;2022-12-07T04:48:40;9.6;;;5.4;;
51194;SDS011;37259;49.972;19.850;2022-12-07T04:49:40;9.6;;;5.4;;
51194;SDS011;37259;49.972;19.850;2022-12-07T04:50:40;9.6;;;5.4;;
51194;SDS011;37259;49.972;19.850;2022-12-07T04:51:40;9.6;;;5.4;;
51194;SDS011;37259;49.972;19.850;2022-12-07T04:52:40;9.6;;;5.4;;
51194;SDS011;37259;49.972;19.850;2022-12-07T04:53:40;9.6;;;5.4;;
51194;SDS011;37259;49.972;19.850;2022-12-07T04:54:40;9.6;;;5.4;;
51194;SDS011;37259;49.972;19.850;2022-12-07T04:55:40;9.6;;;5.4;;
51194;SDS011;37259;49.972;19.850;2022-12-07T04:56:40;9.6;;;5.4;;
51194;SDS011;37259;49.972;19.850;2022-12-07T04:57:40;9.6;;;5.4;;
51194;SDS011;37259;49.972;19.850;2022-12-07T04:58:40;9.6;;;5.4;;
51194;SDS011;37259;49.972;19.850;2022-12-07T04:59:40;9.6;;;5.4;;
51194;SDS011;37259;49.972;19.850;2022-12-07T05:00:40;9.6;;;5.4;;
51194;SDS011;37259;49.972;19.850;2022-12-07T05:01:40;9.6;;;5.4;;
51194;SDS011;37259;49.972;19.850;2022-12-07T05:02:40;9.6;;;5.4;;
51194;SDS011;37259;49.972;19.850;2022-12-07T05:03:40;9.6;;;5.4;;
51194;SDS011;37259;49.972;19.850;2022-12-07T05:04:40;9.6;;;5.4;;
51194;SDS011;37259;49.972;19.850;2022-12-07T05:05:40;9.6;;;5.4;;
51194;SDS011;37259;49.972;19.850;2022-12-07T05:06:40;9.6;;;5.4;;
51194;SDS011;37259;49.972;19.850;2022-12-07T05:07:40;9.6;;;5.4;;
51194;SDS011;37259;49.972;19.850;2022-12-07T05:08:40;9.6;;;5.4;;
51194;SDS011;37259;49.972;19.850;2022-12-07T05:09:40;9.6;;;5.4;;
51194;SDS011;37259;49.972;19.850;2022-12-07T05:10:40;9.6;;;5.4;;
51194;SDS011;37259;49.972;19.850;2022-12-07T05:11:40;9.6;;;5.4;;
51194;SDS011;37259;49.972;19.850;2022-12-07T05:12:40;9.6;;;5.4;;
51194;SDS011;37259;49.972;19.850;2022-12-07T05:13:40;9.6;;;5.4;;
51194;SDS011;37259;49.972;19.850;2022-12-07T05:14:40;9.6;;;5.4;;
51194;SDS011;37259;49.972;19.850;2022-12-07T05:15:40;9.6;;;5.4;;
51194;SDS011;37259;49.972;19.850;2022-12-07T05:16:40;9.6;;;5.4;;
51194;SDS011;37259;49.972;19.850;2022-12-07T05:17:40;9.7;;;5.7;;
51194;SDS011;37259;49.972;19.850;2022-12-07T05:18:40;9.7;;;5.7;;
51194;SDS011;37259;49.972;19.850;2022-12-07T05:19:40;9.7;;;5.7;;
51194;SDS011;37259;49.972;19.850;2022-12-07T05:20:40;9.7;;;5.7;;
51194;SDS011;37259;49.972;19.850;2022-12-07T05:21:40;9.7;;;5.7;;
51194;SDS011;37259;49.972;19.850;2022-12-07T05:22:40;9.7;;;5.7;;
51194;SDS011;37259;49.972;19.850;2022-12-07T05:23:40;9.7;;;5.7;;
51194;SDS011;37259;49.972;19.850;2022-12-07T05:24:40;9.7;;;5.7;;
51194;SDS011;37259;49.972;19.850;2022-12-07T05:25:40;9.7;;;5.7;;
51194;SDS011;37259;49.972;19.850;2022-12-07T05:26:40;9.7;;;5.7;;
51194;SDS011;37259;49.972;19.850;2022-12-07T05:27:40;9.7;;;5.7;;
51194;SDS011;37259;49.972;19.850;2022-12-07T05:28:40;9.7;;;5.7;;
51194;SDS011;37259;49.972;19.850;2022-12-07T05:29:40;9.7;;;5.7;;
51194;SDS011;37259;49.972;19.850;2022-12-07T05:30:40;9.7;;;5.7;;
51194;SDS011;37259;49.972;19.850;2022-12-07T05:31:40;9.7;;;5.7;;
51194;SDS011;37259;49.972;19.850;2022-12-07T05:32:40;9.7;;;5.7;;
51194;SDS011;37259;49.972;19.850;2022-12-07T05:33:40;9.7;;;5.7;;
51194;SDS011;37259;49.972;19.850;2022-12-07T05:34:40;9.7;;;5.7;;
51194;SDS011;37259;49.972;19.850;2022-12-07T05:35:40;9.7;;;5.7;;
51194;SDS011;37259;49.972;19.850;2022-12-07T05:36:40;9.7;;;5.7;;
51194;SDS011;37259;49.972;19.850;2022-12-07T05:37:40;9.7;;;5.7;;
51194;SDS011;37259;49.972;19.850;2022-12-07T05:38:40;9.7;;;5.7;;
51194;SDS011;37259;49.972;19.850;2022-12-07T05:39:40;9.7;;;5.7;;
51194;SDS011;37259;49.972;19.850;2022-12-07T05:40:40;9.7;;;5.7;;
51194;SDS011;37259;49.972;19.850;2022-12-07T05:41:40;9.7;;;5.7;;
51194;SDS011;37259;49.972;19.850;2022-12-07T05:42:40;9.7;;;5.7;;
51194;SDS011;37259;49.972;19.850;2022-12-07T05:43:40;9.7;;;5.7;;
51194;SDS011;37259;49.972;19.850;2022-12-07T05:44:40;9.7;;;5.7;;
51194;SDS011;37259;49.972;19.850;2022-12-07T05:45:40;9.7;;;5.7;;
51194;SDS011;37259;49.972;19.850;2022-12-07T05:46:40;9.7;;;5.7;;
51194;SDS011;37259;49.972;19.850;2022-12-07T05:47:40;9.3;;;5.6;;
51194;SDS011;37259;49.972;19.850;2022-12-07T05:48:40;9.3;;;5.6;;
51194;SDS011;37259;49.972;19.850;2022-12-07T05:49:40;9.3;;;5.6;;
51194;SDS011;37259;49.972;19.850;2022-12-07T05:50:40;9.3;;;5.6;;
51194;SDS011;37259;49.972;19.850;2022-12-07T05:51:40;9.3;;;5.6;;
51194;SDS011;37259;49.972;19.850;2022-12-07T05:52:40;9.3;;;5.6;;
51194;SDS011;37259;49.972;19.850;2022-12-07T05:53:40;9.3;;;5.6;;
51194;SDS011;37259;49.972;19.850;2022-12-07T05:54:40;9.3;;;5.6;;
51194;SDS011;37259;49.972;19.850;2022-12-07T05:55:40;9.3;;;5.6;;
51194;SDS011;37259;49.972;19.850;2022-12-07T05:56:40;9.3;;;5.6;;
51194;SDS011;37259;49.972;19.850;2022-12-07T05:57:40;9.3;;;5.6;;
51194;SDS011;37259;49.972;19.850;2022-12-07T05:58:40;9.3;;;5.6;;
51194;SDS011;37259;49.972;19.850;2022-12-07T05:59:40;9.3;;;5.6;;
51194;SDS011;37259;49.972;19.850;2022-12-07T06:00:40;9.3;;;5.6;;
51194;SDS011;37259;49.972;19.850;2022-12-07T06:01:40;9.3;;;5.6;;
51194;SDS011;37259;49.972;19.850;2022-12-07T06:02:40;9.3;;;5.6;;
51194;SDS011;37259;49.972;19.850;2022-12-07T06:03:40;9.3;;;5.6;;
51194;SDS011;37259;49.972;19.850;2022-12-07T06:04:41;9.3;;;5.6;;